TimeEST,TemperatureF,Dew PointF,Humidity,Sea Level PressureIn,VisibilityMPH,Wind Direction,Wind SpeedMPH,Gust SpeedMPH,PrecipitationIn,Events,Conditions,WindDirDegrees,DateUTC
12:15 AM,50.0,35.6,58,30.31,10.0,ESE,11.5,-,N/A,,Overcast,120,2013-11-21 05:15:00
12:35 AM,50.0,35.6,58,30.31,10.0,ESE,6.9,-,N/A,,Overcast,110,2013-11-21 05:35:00
12:55 AM,50.0,35.6,58,30.31,10.0,East,5.8,-,N/A,,Overcast,100,2013-11-21 05:55:00
1:15 AM,50.0,35.6,58,30.31,10.0,ESE,8.1,-,N/A,,Overcast,110,2013-11-21 06:15:00
1:35 AM,50.0,35.6,58,30.31,10.0,East,9.2,-,N/A,,Overcast,100,2013-11-21 06:35:00
1:55 AM,50.0,35.6,58,30.31,10.0,ESE,5.8,-,N/A,,Overcast,110,2013-11-21 06:55:00
2:15 AM,50.0,35.6,58,30.31,10.0,ESE,5.8,-,N/A,,Overcast,110,2013-11-21 07:15:00
2:35 AM,50.0,35.6,58,30.31,10.0,ESE,6.9,-,N/A,,Overcast,110,2013-11-21 07:35:00
2:55 AM,50.0,35.6,58,30.32,10.0,East,5.8,-,N/A,,Overcast,90,2013-11-21 07:55:00
3:15 AM,50.0,35.6,58,30.32,10.0,ESE,5.8,-,N/A,,Overcast,110,2013-11-21 08:15:00
3:35 AM,50.0,35.6,58,30.31,10.0,East,6.9,-,N/A,,Overcast,100,2013-11-21 08:35:00
3:55 AM,50.0,37.4,62,30.30,10.0,ESE,5.8,-,N/A,,Overcast,120,2013-11-21 08:55:00
4:15 AM,50.0,37.4,62,30.30,10.0,East,5.8,-,N/A,,Overcast,100,2013-11-21 09:15:00
4:35 AM,50.0,37.4,62,30.31,10.0,ESE,5.8,-,N/A,,Overcast,110,2013-11-21 09:35:00
4:55 AM,50.0,37.4,62,30.31,10.0,East,6.9,-,N/A,,Overcast,100,2013-11-21 09:55:00
5:15 AM,50.0,37.4,62,30.31,10.0,East,6.9,-,N/A,,Overcast,100,2013-11-21 10:15:00
5:35 AM,50.0,37.4,62,30.31,10.0,ESE,5.8,-,N/A,,Overcast,110,2013-11-21 10:35:00
5:55 AM,50.0,39.2,66,30.31,10.0,East,5.8,-,N/A,,Overcast,100,2013-11-21 10:55:00
6:15 AM,50.0,39.2,66,30.32,10.0,East,6.9,-,N/A,,Overcast,100,2013-11-21 11:15:00
6:35 AM,50.0,41.0,71,30.32,10.0,ESE,5.8,-,N/A,,Overcast,120,2013-11-21 11:35:00
6:55 AM,50.0,41.0,71,30.33,10.0,East,10.4,-,N/A,,Overcast,100,2013-11-21 11:55:00
7:15 AM,50.0,41.0,71,30.33,10.0,ESE,4.6,-,N/A,,Overcast,110,2013-11-21 12:15:00
7:35 AM,50.0,41.0,71,30.34,10.0,ESE,6.9,-,N/A,,Overcast,110,2013-11-21 12:35:00
7:55 AM,50.0,41.0,71,30.35,10.0,East,5.8,-,N/A,,Overcast,100,2013-11-21 12:55:00
8:15 AM,50.0,41.0,71,30.35,10.0,ESE,5.8,-,N/A,,Overcast,110,2013-11-21 13:15:00
8:35 AM,50.0,41.0,71,30.36,10.0,East,4.6,16.1,N/A,,Overcast,100,2013-11-21 13:35:00
8:55 AM,50.0,41.0,71,30.36,10.0,ESE,6.9,-,N/A,,Overcast,110,2013-11-21 13:55:00
9:15 AM,50.0,41.0,71,30.36,10.0,ESE,4.6,-,N/A,,Overcast,110,2013-11-21 14:15:00
9:35 AM,51.8,41.0,67,30.37,10.0,ESE,8.1,-,N/A,,Overcast,110,2013-11-21 14:35:00
9:55 AM,51.8,42.8,71,30.37,5.0,East,9.2,-,N/A,,Haze,90,2013-11-21 14:55:00
10:15 AM,53.6,42.8,67,30.38,10.0,East,8.1,-,N/A,,Overcast,90,2013-11-21 15:15:00
10:35 AM,53.6,42.8,67,30.37,10.0,ESE,8.1,-,N/A,,Overcast,110,2013-11-21 15:35:00
10:55 AM,53.6,44.6,72,30.36,10.0,East,8.1,-,N/A,,Overcast,100,2013-11-21 15:55:00
11:15 AM,55.4,44.6,67,30.36,10.0,East,6.9,-,N/A,,Overcast,90,2013-11-21 16:15:00
11:35 AM,57.2,44.6,63,30.35,10.0,SE,9.2,-,N/A,,Overcast,140,2013-11-21 16:35:00
11:55 AM,57.2,46.4,67,30.34,10.0,ESE,8.1,-,N/A,,Overcast,120,2013-11-21 16:55:00
12:15 PM,57.2,46.4,67,30.34,10.0,ESE,4.6,-,N/A,,Overcast,110,2013-11-21 17:15:00
12:35 PM,59.0,46.4,63,30.33,10.0,SE,9.2,-,N/A,,Overcast,140,2013-11-21 17:35:00
12:55 PM,59.0,46.4,63,30.32,10.0,SE,8.1,-,N/A,,Scattered Clouds,130,2013-11-21 17:55:00
1:15 PM,60.8,46.4,59,30.31,10.0,East,8.1,-,N/A,,Mostly Cloudy,100,2013-11-21 18:15:00
1:35 PM,60.8,48.2,63,30.31,10.0,SE,6.9,-,N/A,,Overcast,140,2013-11-21 18:35:00
1:55 PM,60.8,48.2,63,30.30,10.0,ESE,5.8,-,N/A,,Overcast,110,2013-11-21 18:55:00
2:15 PM,60.8,48.2,63,30.30,10.0,SE,6.9,-,N/A,,Overcast,130,2013-11-21 19:15:00
2:35 PM,60.8,50.0,68,30.29,10.0,SE,5.8,-,N/A,,Overcast,140,2013-11-21 19:35:00
2:55 PM,62.6,50.0,63,30.29,10.0,SE,8.1,-,N/A,,Mostly Cloudy,130,2013-11-21 19:55:00
3:15 PM,60.8,50.0,68,30.29,10.0,ESE,6.9,-,N/A,,Mostly Cloudy,120,2013-11-21 20:15:00
3:35 PM,60.8,50.0,68,30.29,10.0,SE,10.4,-,N/A,,Overcast,130,2013-11-21 20:35:00
3:55 PM,59.0,50.0,72,30.29,10.0,SE,5.8,-,N/A,,Overcast,130,2013-11-21 20:55:00
4:15 PM,59.0,50.0,72,30.29,10.0,SE,5.8,-,N/A,,Light Drizzle,130,2013-11-21 21:15:00
4:35 PM,59.0,50.0,72,30.29,10.0,ESE,6.9,-,N/A,,Overcast,110,2013-11-21 21:35:00
4:55 PM,59.0,50.0,72,30.29,10.0,East,6.9,-,N/A,,Overcast,100,2013-11-21 21:55:00
5:15 PM,59.0,50.0,72,30.29,10.0,ESE,4.6,-,N/A,,Overcast,120,2013-11-21 22:15:00
5:35 PM,59.0,50.0,72,30.30,10.0,ESE,6.9,-,N/A,,Overcast,110,2013-11-21 22:35:00
5:55 PM,55.4,48.2,77,30.30,10.0,ESE,5.8,-,N/A,,Overcast,120,2013-11-21 22:55:00
6:15 PM,55.4,48.2,77,30.31,10.0,East,5.8,-,N/A,,Overcast,90,2013-11-21 23:15:00
6:35 PM,55.4,48.2,77,30.31,10.0,East,5.8,-,N/A,,Overcast,100,2013-11-21 23:35:00
6:55 PM,55.4,48.2,77,30.31,10.0,ESE,4.6,-,N/A,,Overcast,110,2013-11-21 23:55:00
7:15 PM,55.4,48.2,77,30.31,10.0,East,6.9,-,N/A,,Overcast,90,2013-11-22 00:15:00
7:35 PM,53.6,46.4,77,30.32,10.0,ESE,5.8,-,N/A,,Mostly Cloudy,110,2013-11-22 00:35:00
7:55 PM,53.6,46.4,77,30.33,10.0,ESE,5.8,-,N/A,,Mostly Cloudy,120,2013-11-22 00:55:00
8:15 PM,53.6,46.4,77,30.33,10.0,SE,4.6,-,N/A,,Overcast,130,2013-11-22 01:15:00
8:35 PM,53.6,46.4,77,30.33,10.0,ESE,5.8,-,N/A,,Overcast,110,2013-11-22 01:35:00
8:55 PM,51.8,46.4,82,30.33,10.0,ESE,4.6,-,N/A,,Scattered Clouds,120,2013-11-22 01:55:00
9:15 PM,51.8,46.4,82,30.34,10.0,East,4.6,-,N/A,,Scattered Clouds,100,2013-11-22 02:15:00
9:35 PM,51.8,46.4,82,30.34,10.0,ESE,4.6,-,N/A,,Mostly Cloudy,110,2013-11-22 02:35:00
9:55 PM,51.8,48.2,88,30.34,10.0,ESE,5.8,-,N/A,,Mostly Cloudy,120,2013-11-22 02:55:00
10:15 PM,51.8,48.2,88,30.35,10.0,ESE,3.5,-,N/A,,Mostly Cloudy,110,2013-11-22 03:15:00
10:35 PM,51.8,48.2,88,30.35,10.0,ESE,3.5,-,N/A,,Overcast,120,2013-11-22 03:35:00
10:55 PM,51.8,48.2,88,30.35,10.0,ESE,3.5,-,N/A,,Overcast,120,2013-11-22 03:55:00
11:15 PM,51.8,48.2,88,30.35,10.0,ESE,5.8,-,N/A,,Overcast,110,2013-11-22 04:15:00
11:35 PM,51.8,48.2,88,30.34,10.0,ESE,3.5,-,N/A,,Overcast,110,2013-11-22 04:35:00
11:55 PM,51.8,48.2,88,30.34,10.0,ESE,4.6,-,N/A,,Overcast,120,2013-11-22 04:55:00